sensor_id;sensor_type;location;lat;lon;timestamp;P1;durP1;ratioP1;P2;durP2;ratioP2
80567;SDS011;69922;45.656;25.586;2023-06-22T00:00:51;10.40;;;9.30;;
80567;SDS011;69922;45.656;25.586;2023-06-22T00:02:07;11.30;;;9.10;;
80567;SDS011;69922;45.656;25.586;2023-06-22T00:03:13;10.50;;;8.30;;
80567;SDS011;69922;45.656;25.586;2023-06-22T00:04:20;10.30;;;8.50;;
80567;SDS011;69922;45.656;25.586;2023-06-22T00:05:26;11.40;;;9.80;;
80567;SDS011;69922;45.656;25.586;2023-06-22T00:06:32;11.50;;;9.10;;
80567;SDS011;69922;45.656;25.586;2023-06-22T00:07:40;13.30;;;9.60;;
80567;SDS011;69922;45.656;25.586;2023-06-22T00:08:45;14.60;;;9.40;;
80567;SDS011;69922;45.656;25.586;2023-06-22T00:09:52;11.30;;;8.90;;
80567;SDS011;69922;45.656;25.586;2023-06-22T00:10:58;12.80;;;9.60;;
80567;SDS011;69922;45.656;25.586;2023-06-22T00:12:06;10.70;;;8.50;;
80567;SDS011;69922;45.656;25.586;2023-06-22T00:13:13;13.30;;;8.90;;
80567;SDS011;69922;45.656;25.586;2023-06-22T00:14:21;11.00;;;8.60;;
80567;SDS011;69922;45.656;25.586;2023-06-22T00:15:27;9.60;;;8.10;;
80567;SDS011;69922;45.656;25.586;2023-06-22T00:16:33;9.30;;;8.40;;
80567;SDS011;69922;45.656;25.586;2023-06-22T00:17:39;10.70;;;8.50;;
80567;SDS011;69922;45.656;25.586;2023-06-22T00:18:45;11.90;;;8.30;;
80567;SDS011;69922;45.656;25.586;2023-06-22T00:19:53;10.80;;;8.20;;
80567;SDS011;69922;45.656;25.586;2023-06-22T00:21:01;9.20;;;8.10;;
80567;SDS011;69922;45.656;25.586;2023-06-22T00:22:07;9.60;;;7.70;;
80567;SDS011;69922;45.656;25.586;2023-06-22T00:23:14;12.60;;;8.50;;
80567;SDS011;69922;45.656;25.586;2023-06-22T00:24:21;10.50;;;8.50;;
80567;SDS011;69922;45.656;25.586;2023-06-22T00:25:28;12.40;;;8.30;;
80567;SDS011;69922;45.656;25.586;2023-06-22T00:26:36;10.70;;;8.80;;
80567;SDS011;69922;45.656;25.586;2023-06-22T00:27:43;9.60;;;8.20;;
80567;SDS011;69922;45.656;25.586;2023-06-22T00:28:49;12.40;;;8.80;;
80567;SDS011;69922;45.656;25.586;2023-06-22T00:29:56;10.80;;;9.10;;
80567;SDS011;69922;45.656;25.586;2023-06-22T00:31:02;9.80;;;8.00;;
80567;SDS011;69922;45.656;25.586;2023-06-22T00:32:09;9.10;;;7.50;;
80567;SDS011;69922;45.656;25.586;2023-06-22T00:33:15;12.10;;;8.30;;
80567;SDS011;69922;45.656;25.586;2023-06-22T00:34:21;10.00;;;8.80;;
80567;SDS011;69922;45.656;25.586;2023-06-22T00:35:28;11.10;;;8.20;;
80567;SDS011;69922;45.656;25.586;2023-06-22T00:36:34;11.60;;;9.10;;
80567;SDS011;69922;45.656;25.586;2023-06-22T00:37:40;11.70;;;8.50;;
80567;SDS011;69922;45.656;25.586;2023-06-22T00:38:47;10.90;;;8.20;;
80567;SDS011;69922;45.656;25.586;2023-06-22T00:39:55;11.10;;;8.80;;
80567;SDS011;69922;45.656;25.586;2023-06-22T00:41:01;12.70;;;8.50;;
80567;SDS011;69922;45.656;25.586;2023-06-22T00:42:07;10.30;;;8.20;;
80567;SDS011;69922;45.656;25.586;2023-06-22T00:43:14;12.80;;;8.40;;
80567;SDS011;69922;45.656;25.586;2023-06-22T00:44:20;10.70;;;8.60;;
80567;SDS011;69922;45.656;25.586;2023-06-22T00:45:26;11.50;;;8.00;;
80567;SDS011;69922;45.656;25.586;2023-06-22T00:46:33;11.80;;;9.00;;
80567;SDS011;69922;45.656;25.586;2023-06-22T00:47:39;11.30;;;8.90;;
80567;SDS011;69922;45.656;25.586;2023-06-22T00:48:48;10.20;;;8.30;;
80567;SDS011;69922;45.656;25.586;2023-06-22T00:50:01;11.30;;;8.70;;
80567;SDS011;69922;45.656;25.586;2023-06-22T00:51:16;10.90;;;8.40;;
80567;SDS011;69922;45.656;25.586;2023-06-22T00:52:28;11.80;;;9.20;;
80567;SDS011;69922;45.656;25.586;2023-06-22T00:53:38;11.90;;;9.10;;
80567;SDS011;69922;45.656;25.586;2023-06-22T00:54:45;10.10;;;8.20;;
80567;SDS011;69922;45.656;25.586;2023-06-22T00:55:53;13.10;;;8.30;;
80567;SDS011;69922;45.656;25.586;2023-06-22T00:57:00;11.50;;;9.10;;
80567;SDS011;69922;45.656;25.586;2023-06-22T00:58:07;11.10;;;8.70;;
80567;SDS011;69922;45.656;25.586;2023-06-22T00:59:15;9.80;;;8.00;;
80567;SDS011;69922;45.656;25.586;2023-06-22T01:00:22;12.40;;;8.20;;
80567;SDS011;69922;45.656;25.586;2023-06-22T01:01:30;10.50;;;8.90;;
80567;SDS011;69922;45.656;25.586;2023-06-22T01:02:39;10.80;;;8.30;;
80567;SDS011;69922;45.656;25.586;2023-06-22T01:03:45;11.50;;;7.90;;
80567;SDS011;69922;45.656;25.586;2023-06-22T01:04:52;10.20;;;7.60;;
80567;SDS011;69922;45.656;25.586;2023-06-22T01:06:01;9.20;;;8.10;;
80567;SDS011;69922;45.656;25.586;2023-06-22T01:08:29;10.40;;;8.00;;
80567;SDS011;69922;45.656;25.586;2023-06-22T01:09:44;12.30;;;8.70;;
80567;SDS011;69922;45.656;25.586;2023-06-22T01:10:59;9.70;;;8.50;;
80567;SDS011;69922;45.656;25.586;2023-06-22T01:12:10;11.50;;;8.30;;
80567;SDS011;69922;45.656;25.586;2023-06-22T01:13:21;12.40;;;9.00;;
80567;SDS011;69922;45.656;25.586;2023-06-22T01:14:37;12.70;;;9.10;;
80567;SDS011;69922;45.656;25.586;2023-06-22T01:15:49;12.60;;;9.20;;
80567;SDS011;69922;45.656;25.586;2023-06-22T01:17:00;11.30;;;8.90;;
80567;SDS011;69922;45.656;25.586;2023-06-22T01:18:09;11.80;;;8.50;;
80567;SDS011;69922;45.656;25.586;2023-06-22T01:19:24;9.60;;;8.00;;
80567;SDS011;69922;45.656;25.586;2023-06-22T01:20:39;9.60;;;7.70;;
80567;SDS011;69922;45.656;25.586;2023-06-22T01:21:47;12.70;;;8.20;;
80567;SDS011;69922;45.656;25.586;2023-06-22T01:22:59;12.20;;;8.90;;
80567;SDS011;69922;45.656;25.586;2023-06-22T01:24:14;13.60;;;9.90;;
80567;SDS011;69922;45.656;25.586;2023-06-22T01:25:28;12.20;;;8.90;;
80567;SDS011;69922;45.656;25.586;2023-06-22T01:26:51;12.90;;;9.20;;
80567;SDS011;69922;45.656;25.586;2023-06-22T01:28:05;11.10;;;8.70;;
80567;SDS011;69922;45.656;25.586;2023-06-22T01:29:24;12.30;;;8.20;;
80567;SDS011;69922;45.656;25.586;2023-06-22T01:30:31;11.70;;;9.60;;
80567;SDS011;69922;45.656;25.586;2023-06-22T01:31:43;13.60;;;8.50;;
80567;SDS011;69922;45.656;25.586;2023-06-22T01:32:53;15.00;;;9.00;;
80567;SDS011;69922;45.656;25.586;2023-06-22T01:34:03;10.20;;;8.10;;
80567;SDS011;69922;45.656;25.586;2023-06-22T01:35:12;11.60;;;8.40;;
80567;SDS011;69922;45.656;25.586;2023-06-22T01:36:21;12.70;;;9.30;;
80567;SDS011;69922;45.656;25.586;2023-06-22T01:37:30;12.90;;;9.50;;
80567;SDS011;69922;45.656;25.586;2023-06-22T01:38:39;12.00;;;9.60;;
80567;SDS011;69922;45.656;25.586;2023-06-22T01:39:46;12.50;;;9.30;;
80567;SDS011;69922;45.656;25.586;2023-06-22T01:40:52;12.50;;;9.30;;
80567;SDS011;69922;45.656;25.586;2023-06-22T01:41:59;15.90;;;9.80;;
80567;SDS011;69922;45.656;25.586;2023-06-22T01:44:15;12.90;;;9.50;;
80567;SDS011;69922;45.656;25.586;2023-06-22T01:45:22;13.10;;;10.60;;
80567;SDS011;69922;45.656;25.586;2023-06-22T01:46:30;12.70;;;9.10;;
80567;SDS011;69922;45.656;25.586;2023-06-22T01:47:38;11.50;;;8.80;;
80567;SDS011;69922;45.656;25.586;2023-06-22T01:48:45;13.70;;;9.50;;
80567;SDS011;69922;45.656;25.586;2023-06-22T01:49:51;15.80;;;9.30;;
80567;SDS011;69922;45.656;25.586;2023-06-22T01:50:58;13.90;;;9.70;;
80567;SDS011;69922;45.656;25.586;2023-06-22T01:52:06;14.00;;;9.90;;
80567;SDS011;69922;45.656;25.586;2023-06-22T01:53:13;10.40;;;8.80;;
80567;SDS011;69922;45.656;25.586;2023-06-22T01:54:19;14.70;;;9.70;;
80567;SDS011;69922;45.656;25.586;2023-06-22T01:55:26;14.00;;;9.20;;
80567;SDS011;69922;45.656;25.586;2023-06-22T01:56:32;11.70;;;9.50;;
80567;SDS011;69922;45.656;25.586;2023-06-22T01:57:39;12.70;;;9.70;;
80567;SDS011;69922;45.656;25.586;2023-06-22T01:58:47;12.80;;;9.00;;
80567;SDS011;69922;45.656;25.586;2023-06-22T01:59:58;13.30;;;8.70;;
80567;SDS011;69922;45.656;25.586;2023-06-22T02:01:09;12.40;;;8.80;;
80567;SDS011;69922;45.656;25.586;2023-06-22T02:03:25;13.10;;;9.80;;
80567;SDS011;69922;45.656;25.586;2023-06-22T02:04:36;13.40;;;9.50;;
80567;SDS011;69922;45.656;25.586;2023-06-22T02:05:49;12.60;;;9.70;;
80567;SDS011;69922;45.656;25.586;2023-06-22T02:08:05;12.80;;;9.50;;
80567;SDS011;69922;45.656;25.586;2023-06-22T02:09:15;16.80;;;9.80;;
80567;SDS011;69922;45.656;25.586;2023-06-22T02:10:24;11.70;;;9.30;;
80567;SDS011;69922;45.656;25.586;2023-06-22T02:11:34;12.90;;;9.60;;
80567;SDS011;69922;45.656;25.586;2023-06-22T02:12:47;11.90;;;9.00;;
80567;SDS011;69922;45.656;25.586;2023-06-22T02:13:55;11.30;;;9.20;;
80567;SDS011;69922;45.656;25.586;2023-06-22T02:15:03;11.60;;;9.50;;
80567;SDS011;69922;45.656;25.586;2023-06-22T02:16:12;11.60;;;9.60;;
80567;SDS011;69922;45.656;25.586;2023-06-22T02:17:20;15.40;;;10.20;;
80567;SDS011;69922;45.656;25.586;2023-06-22T02:18:27;11.40;;;8.90;;
80567;SDS011;69922;45.656;25.586;2023-06-22T02:19:38;13.40;;;10.00;;
80567;SDS011;69922;45.656;25.586;2023-06-22T02:20:45;12.00;;;9.50;;
80567;SDS011;69922;45.656;25.586;2023-06-22T02:21:51;13.90;;;9.70;;
80567;SDS011;69922;45.656;25.586;2023-06-22T02:22:57;14.00;;;10.30;;
80567;SDS011;69922;45.656;25.586;2023-06-22T02:24:03;19.90;;;10.80;;
80567;SDS011;69922;45.656;25.586;2023-06-22T02:25:10;15.30;;;10.50;;
80567;SDS011;69922;45.656;25.586;2023-06-22T02:26:17;15.90;;;10.10;;
80567;SDS011;69922;45.656;25.586;2023-06-22T02:27:24;15.00;;;9.80;;
80567;SDS011;69922;45.656;25.586;2023-06-22T02:28:30;12.20;;;9.60;;
80567;SDS011;69922;45.656;25.586;2023-06-22T02:29:36;13.60;;;9.30;;
80567;SDS011;69922;45.656;25.586;2023-06-22T02:30:42;13.00;;;9.00;;
80567;SDS011;69922;45.656;25.586;2023-06-22T02:31:48;9.90;;;8.70;;
80567;SDS011;69922;45.656;25.586;2023-06-22T02:32:55;11.60;;;8.90;;
80567;SDS011;69922;45.656;25.586;2023-06-22T02:34:05;12.70;;;8.60;;
80567;SDS011;69922;45.656;25.586;2023-06-22T02:35:11;12.50;;;9.10;;
80567;SDS011;69922;45.656;25.586;2023-06-22T02:36:17;10.90;;;8.30;;
80567;SDS011;69922;45.656;25.586;2023-06-22T02:37:29;12.00;;;8.70;;
80567;SDS011;69922;45.656;25.586;2023-06-22T02:38:35;11.60;;;9.10;;
80567;SDS011;69922;45.656;25.586;2023-06-22T02:39:47;10.50;;;8.70;;
80567;SDS011;69922;45.656;25.586;2023-06-22T02:40:53;10.20;;;8.50;;
80567;SDS011;69922;45.656;25.586;2023-06-22T02:41:59;12.70;;;7.70;;
80567;SDS011;69922;45.656;25.586;2023-06-22T02:43:05;11.40;;;8.90;;
80567;SDS011;69922;45.656;25.586;2023-06-22T02:44:12;10.30;;;8.20;;
80567;SDS011;69922;45.656;25.586;2023-06-22T02:45:18;11.30;;;8.00;;
80567;SDS011;69922;45.656;25.586;2023-06-22T02:46:25;9.50;;;8.30;;
80567;SDS011;69922;45.656;25.586;2023-06-22T02:47:31;10.00;;;8.30;;
80567;SDS011;69922;45.656;25.586;2023-06-22T02:48:38;9.70;;;8.00;;
80567;SDS011;69922;45.656;25.586;2023-06-22T02:49:44;12.00;;;9.00;;
80567;SDS011;69922;45.656;25.586;2023-06-22T02:50:51;12.00;;;9.10;;
80567;SDS011;69922;45.656;25.586;2023-06-22T02:51:57;12.40;;;8.80;;
80567;SDS011;69922;45.656;25.586;2023-06-22T02:53:03;11.80;;;8.70;;
80567;SDS011;69922;45.656;25.586;2023-06-22T02:54:09;13.70;;;10.80;;
80567;SDS011;69922;45.656;25.586;2023-06-22T02:55:15;12.10;;;9.50;;
80567;SDS011;69922;45.656;25.586;2023-06-22T02:56:22;12.90;;;9.80;;
80567;SDS011;69922;45.656;25.586;2023-06-22T02:57:30;11.70;;;9.90;;
80567;SDS011;69922;45.656;25.586;2023-06-22T02:58:36;15.90;;;9.80;;
80567;SDS011;69922;45.656;25.586;2023-06-22T02:59:43;12.80;;;9.20;;
80567;SDS011;69922;45.656;25.586;2023-06-22T03:00:48;12.50;;;9.50;;
80567;SDS011;69922;45.656;25.586;2023-06-22T03:01:58;11.80;;;9.80;;
80567;SDS011;69922;45.656;25.586;2023-06-22T03:04:12;14.50;;;9.10;;
80567;SDS011;69922;45.656;25.586;2023-06-22T03:05:19;11.10;;;8.80;;
80567;SDS011;69922;45.656;25.586;2023-06-22T03:06:25;11.30;;;9.40;;
80567;SDS011;69922;45.656;25.586;2023-06-22T03:07:33;14.40;;;9.00;;
80567;SDS011;69922;45.656;25.586;2023-06-22T03:08:40;11.50;;;8.90;;
80567;SDS011;69922;45.656;25.586;2023-06-22T03:09:46;11.70;;;9.10;;
80567;SDS011;69922;45.656;25.586;2023-06-22T03:10:56;13.50;;;9.50;;
80567;SDS011;69922;45.656;25.586;2023-06-22T03:12:02;13.40;;;9.20;;
80567;SDS011;69922;45.656;25.586;2023-06-22T03:13:10;11.80;;;9.40;;
80567;SDS011;69922;45.656;25.586;2023-06-22T03:14:16;11.00;;;9.10;;
80567;SDS011;69922;45.656;25.586;2023-06-22T03:15:23;13.00;;;9.00;;
80567;SDS011;69922;45.656;25.586;2023-06-22T03:16:30;11.90;;;8.90;;
80567;SDS011;69922;45.656;25.586;2023-06-22T03:17:37;13.20;;;9.10;;
80567;SDS011;69922;45.656;25.586;2023-06-22T03:18:45;15.00;;;9.50;;
80567;SDS011;69922;45.656;25.586;2023-06-22T03:19:51;11.10;;;9.00;;
80567;SDS011;69922;45.656;25.586;2023-06-22T03:20:58;12.90;;;9.60;;
80567;SDS011;69922;45.656;25.586;2023-06-22T03:22:06;10.90;;;8.50;;
80567;SDS011;69922;45.656;25.586;2023-06-22T03:23:15;10.40;;;9.30;;
80567;SDS011;69922;45.656;25.586;2023-06-22T03:24:22;12.20;;;9.20;;
80567;SDS011;69922;45.656;25.586;2023-06-22T03:25:28;11.80;;;9.60;;
80567;SDS011;69922;45.656;25.586;2023-06-22T03:26:35;11.40;;;8.90;;
80567;SDS011;69922;45.656;25.586;2023-06-22T03:27:40;12.00;;;9.00;;
80567;SDS011;69922;45.656;25.586;2023-06-22T03:28:48;9.70;;;8.00;;
80567;SDS011;69922;45.656;25.586;2023-06-22T03:29:54;10.30;;;8.40;;
80567;SDS011;69922;45.656;25.586;2023-06-22T03:31:00;12.20;;;8.50;;
80567;SDS011;69922;45.656;25.586;2023-06-22T03:32:08;9.40;;;8.30;;
80567;SDS011;69922;45.656;25.586;2023-06-22T03:33:14;10.80;;;8.80;;
80567;SDS011;69922;45.656;25.586;2023-06-22T03:34:20;9.50;;;8.40;;
80567;SDS011;69922;45.656;25.586;2023-06-22T03:35:26;14.50;;;9.20;;
80567;SDS011;69922;45.656;25.586;2023-06-22T03:36:32;11.50;;;8.70;;
80567;SDS011;69922;45.656;25.586;2023-06-22T03:37:39;11.50;;;8.90;;
80567;SDS011;69922;45.656;25.586;2023-06-22T03:38:46;12.70;;;9.20;;
80567;SDS011;69922;45.656;25.586;2023-06-22T03:39:53;10.00;;;8.60;;
80567;SDS011;69922;45.656;25.586;2023-06-22T03:41:06;17.50;;;9.60;;
80567;SDS011;69922;45.656;25.586;2023-06-22T03:42:12;10.50;;;9.20;;
80567;SDS011;69922;45.656;25.586;2023-06-22T03:43:18;11.60;;;9.00;;
80567;SDS011;69922;45.656;25.586;2023-06-22T03:44:24;11.60;;;9.30;;
80567;SDS011;69922;45.656;25.586;2023-06-22T03:45:30;10.10;;;9.00;;
80567;SDS011;69922;45.656;25.586;2023-06-22T03:46:36;12.70;;;9.10;;
80567;SDS011;69922;45.656;25.586;2023-06-22T03:47:43;13.40;;;10.30;;
80567;SDS011;69922;45.656;25.586;2023-06-22T03:48:49;29.70;;;17.90;;
80567;SDS011;69922;45.656;25.586;2023-06-22T03:49:55;20.40;;;14.10;;
80567;SDS011;69922;45.656;25.586;2023-06-22T03:51:02;20.10;;;11.70;;
80567;SDS011;69922;45.656;25.586;2023-06-22T03:52:09;14.60;;;10.00;;
80567;SDS011;69922;45.656;25.586;2023-06-22T03:53:16;16.60;;;10.90;;
80567;SDS011;69922;45.656;25.586;2023-06-22T03:54:22;16.00;;;10.30;;
80567;SDS011;69922;45.656;25.586;2023-06-22T03:55:29;16.00;;;10.50;;
80567;SDS011;69922;45.656;25.586;2023-06-22T03:56:35;13.10;;;10.00;;
80567;SDS011;69922;45.656;25.586;2023-06-22T03:57:43;14.70;;;9.60;;
80567;SDS011;69922;45.656;25.586;2023-06-22T03:58:49;14.50;;;9.70;;
80567;SDS011;69922;45.656;25.586;2023-06-22T03:59:55;13.70;;;9.10;;
80567;SDS011;69922;45.656;25.586;2023-06-22T04:01:03;14.70;;;9.90;;
80567;SDS011;69922;45.656;25.586;2023-06-22T04:02:10;14.30;;;8.70;;
80567;SDS011;69922;45.656;25.586;2023-06-22T04:03:17;13.30;;;10.40;;
80567;SDS011;69922;45.656;25.586;2023-06-22T04:04:26;14.10;;;9.90;;
80567;SDS011;69922;45.656;25.586;2023-06-22T04:05:32;15.00;;;10.30;;
80567;SDS011;69922;45.656;25.586;2023-06-22T04:06:39;16.70;;;9.80;;
80567;SDS011;69922;45.656;25.586;2023-06-22T04:07:45;14.40;;;10.20;;
80567;SDS011;69922;45.656;25.586;2023-06-22T04:08:52;14.80;;;9.30;;
80567;SDS011;69922;45.656;25.586;2023-06-22T04:09:58;15.20;;;10.30;;
80567;SDS011;69922;45.656;25.586;2023-06-22T04:11:04;12.00;;;9.90;;
80567;SDS011;69922;45.656;25.586;2023-06-22T04:12:11;20.00;;;10.90;;
80567;SDS011;69922;45.656;25.586;2023-06-22T04:13:18;16.90;;;10.20;;
80567;SDS011;69922;45.656;25.586;2023-06-22T04:14:25;15.00;;;10.60;;
80567;SDS011;69922;45.656;25.586;2023-06-22T04:15:31;13.90;;;10.10;;
80567;SDS011;69922;45.656;25.586;2023-06-22T04:16:37;14.90;;;10.40;;
80567;SDS011;69922;45.656;25.586;2023-06-22T04:17:43;15.10;;;9.90;;
80567;SDS011;69922;45.656;25.586;2023-06-22T04:18:50;15.20;;;11.00;;
80567;SDS011;69922;45.656;25.586;2023-06-22T04:19:59;17.30;;;10.50;;
80567;SDS011;69922;45.656;25.586;2023-06-22T04:21:08;14.30;;;9.90;;
80567;SDS011;69922;45.656;25.586;2023-06-22T04:22:15;15.10;;;10.00;;
80567;SDS011;69922;45.656;25.586;2023-06-22T04:23:21;16.60;;;11.00;;
80567;SDS011;69922;45.656;25.586;2023-06-22T04:24:27;18.40;;;10.80;;
80567;SDS011;69922;45.656;25.586;2023-06-22T04:25:33;15.50;;;10.90;;
80567;SDS011;69922;45.656;25.586;2023-06-22T04:26:39;13.00;;;9.70;;
80567;SDS011;69922;45.656;25.586;2023-06-22T04:27:50;15.90;;;10.70;;
80567;SDS011;69922;45.656;25.586;2023-06-22T04:28:56;13.50;;;9.40;;
80567;SDS011;69922;45.656;25.586;2023-06-22T04:30:02;14.00;;;9.90;;
80567;SDS011;69922;45.656;25.586;2023-06-22T04:31:11;12.50;;;9.70;;
80567;SDS011;69922;45.656;25.586;2023-06-22T04:32:17;13.30;;;9.30;;
80567;SDS011;69922;45.656;25.586;2023-06-22T04:33:23;14.00;;;10.00;;
80567;SDS011;69922;45.656;25.586;2023-06-22T04:34:29;15.00;;;11.30;;
80567;SDS011;69922;45.656;25.586;2023-06-22T04:35:36;17.00;;;10.80;;
80567;SDS011;69922;45.656;25.586;2023-06-22T04:36:45;16.50;;;11.20;;
80567;SDS011;69922;45.656;25.586;2023-06-22T04:37:52;17.00;;;11.20;;
80567;SDS011;69922;45.656;25.586;2023-06-22T04:39:00;14.10;;;11.40;;
80567;SDS011;69922;45.656;25.586;2023-06-22T04:40:07;15.60;;;11.00;;
80567;SDS011;69922;45.656;25.586;2023-06-22T04:41:14;17.10;;;11.10;;
80567;SDS011;69922;45.656;25.586;2023-06-22T04:42:28;15.80;;;12.10;;
80567;SDS011;69922;45.656;25.586;2023-06-22T04:43:34;18.10;;;11.10;;
80567;SDS011;69922;45.656;25.586;2023-06-22T04:44:40;15.50;;;10.90;;
80567;SDS011;69922;45.656;25.586;2023-06-22T04:45:46;16.90;;;11.10;;
80567;SDS011;69922;45.656;25.586;2023-06-22T04:46:58;19.10;;;12.60;;
80567;SDS011;69922;45.656;25.586;2023-06-22T04:48:08;16.90;;;11.70;;
80567;SDS011;69922;45.656;25.586;2023-06-22T04:49:20;17.40;;;11.90;;
80567;SDS011;69922;45.656;25.586;2023-06-22T04:50:27;18.70;;;11.70;;
80567;SDS011;69922;45.656;25.586;2023-06-22T04:51:33;17.90;;;11.50;;
80567;SDS011;69922;45.656;25.586;2023-06-22T04:52:39;19.80;;;11.60;;
80567;SDS011;69922;45.656;25.586;2023-06-22T04:53:46;15.30;;;12.00;;
80567;SDS011;69922;45.656;25.586;2023-06-22T04:54:52;19.80;;;11.90;;
80567;SDS011;69922;45.656;25.586;2023-06-22T04:56:04;17.20;;;12.50;;
80567;SDS011;69922;45.656;25.586;2023-06-22T04:58:16;16.30;;;11.70;;
80567;SDS011;69922;45.656;25.586;2023-06-22T04:59:26;16.10;;;11.70;;
80567;SDS011;69922;45.656;25.586;2023-06-22T05:00:36;18.60;;;11.10;;
80567;SDS011;69922;45.656;25.586;2023-06-22T05:01:43;18.40;;;12.70;;
80567;SDS011;69922;45.656;25.586;2023-06-22T05:02:49;18.90;;;12.10;;
80567;SDS011;69922;45.656;25.586;2023-06-22T05:04:06;15.50;;;12.20;;
80567;SDS011;69922;45.656;25.586;2023-06-22T05:05:12;15.20;;;11.50;;
80567;SDS011;69922;45.656;25.586;2023-06-22T05:06:20;16.80;;;12.00;;
80567;SDS011;69922;45.656;25.586;2023-06-22T05:07:28;17.70;;;12.00;;
80567;SDS011;69922;45.656;25.586;2023-06-22T05:08:34;14.80;;;11.50;;
80567;SDS011;69922;45.656;25.586;2023-06-22T05:09:40;18.10;;;11.70;;
80567;SDS011;69922;45.656;25.586;2023-06-22T05:10:46;19.00;;;12.10;;
80567;SDS011;69922;45.656;25.586;2023-06-22T05:12:10;14.40;;;11.80;;
80567;SDS011;69922;45.656;25.586;2023-06-22T05:13:16;18.00;;;13.00;;
80567;SDS011;69922;45.656;25.586;2023-06-22T05:14:22;20.30;;;12.80;;
80567;SDS011;69922;45.656;25.586;2023-06-22T05:15:28;17.50;;;12.20;;
80567;SDS011;69922;45.656;25.586;2023-06-22T05:16:41;19.90;;;13.10;;
80567;SDS011;69922;45.656;25.586;2023-06-22T05:17:48;17.70;;;12.50;;
80567;SDS011;69922;45.656;25.586;2023-06-22T05:18:55;20.00;;;13.60;;
80567;SDS011;69922;45.656;25.586;2023-06-22T05:20:03;17.60;;;13.30;;
80567;SDS011;69922;45.656;25.586;2023-06-22T05:22:15;16.00;;;12.10;;
80567;SDS011;69922;45.656;25.586;2023-06-22T05:23:22;16.70;;;13.40;;
80567;SDS011;69922;45.656;25.586;2023-06-22T05:24:28;18.00;;;12.80;;
80567;SDS011;69922;45.656;25.586;2023-06-22T05:25:34;17.30;;;13.50;;
80567;SDS011;69922;45.656;25.586;2023-06-22T05:26:41;15.20;;;12.00;;
80567;SDS011;69922;45.656;25.586;2023-06-22T05:27:48;19.50;;;12.20;;
80567;SDS011;69922;45.656;25.586;2023-06-22T05:28:56;16.00;;;12.40;;
80567;SDS011;69922;45.656;25.586;2023-06-22T05:30:04;16.20;;;12.10;;
80567;SDS011;69922;45.656;25.586;2023-06-22T05:31:11;18.30;;;12.40;;
80567;SDS011;69922;45.656;25.586;2023-06-22T05:32:17;15.90;;;11.20;;
80567;SDS011;69922;45.656;25.586;2023-06-22T05:33:24;14.20;;;11.20;;
80567;SDS011;69922;45.656;25.586;2023-06-22T05:34:30;16.30;;;11.30;;
80567;SDS011;69922;45.656;25.586;2023-06-22T05:35:36;17.40;;;11.50;;
80567;SDS011;69922;45.656;25.586;2023-06-22T05:36:42;15.60;;;11.20;;
80567;SDS011;69922;45.656;25.586;2023-06-22T05:37:49;15.10;;;11.40;;
80567;SDS011;69922;45.656;25.586;2023-06-22T05:38:55;11.80;;;10.40;;
80567;SDS011;69922;45.656;25.586;2023-06-22T05:40:02;15.60;;;10.30;;
80567;SDS011;69922;45.656;25.586;2023-06-22T05:41:11;14.20;;;10.70;;
80567;SDS011;69922;45.656;25.586;2023-06-22T05:42:22;11.60;;;10.40;;
80567;SDS011;69922;45.656;25.586;2023-06-22T05:43:33;15.20;;;11.40;;
80567;SDS011;69922;45.656;25.586;2023-06-22T05:44:39;15.60;;;11.10;;
80567;SDS011;69922;45.656;25.586;2023-06-22T05:45:45;16.60;;;10.50;;
80567;SDS011;69922;45.656;25.586;2023-06-22T05:46:51;12.70;;;9.80;;
80567;SDS011;69922;45.656;25.586;2023-06-22T05:47:58;14.80;;;10.10;;
80567;SDS011;69922;45.656;25.586;2023-06-22T05:49:04;14.00;;;11.00;;
80567;SDS011;69922;45.656;25.586;2023-06-22T05:50:10;13.00;;;10.60;;
80567;SDS011;69922;45.656;25.586;2023-06-22T05:51:16;14.00;;;10.60;;
80567;SDS011;69922;45.656;25.586;2023-06-22T05:52:23;12.60;;;10.70;;
80567;SDS011;69922;45.656;25.586;2023-06-22T05:53:29;13.80;;;11.30;;
80567;SDS011;69922;45.656;25.586;2023-06-22T05:54:36;10.90;;;9.80;;
80567;SDS011;69922;45.656;25.586;2023-06-22T05:55:43;15.20;;;10.90;;
80567;SDS011;69922;45.656;25.586;2023-06-22T05:56:49;14.20;;;11.20;;
80567;SDS011;69922;45.656;25.586;2023-06-22T05:57:56;14.30;;;9.50;;
80567;SDS011;69922;45.656;25.586;2023-06-22T05:59:01;11.90;;;10.20;;
80567;SDS011;69922;45.656;25.586;2023-06-22T06:00:08;13.00;;;10.10;;
80567;SDS011;69922;45.656;25.586;2023-06-22T06:01:17;14.90;;;10.20;;
80567;SDS011;69922;45.656;25.586;2023-06-22T06:02:23;14.20;;;11.10;;
80567;SDS011;69922;45.656;25.586;2023-06-22T06:03:29;12.60;;;10.10;;
80567;SDS011;69922;45.656;25.586;2023-06-22T06:04:35;12.20;;;9.70;;
80567;SDS011;69922;45.656;25.586;2023-06-22T06:05:43;12.00;;;10.20;;
80567;SDS011;69922;45.656;25.586;2023-06-22T06:06:49;11.90;;;10.70;;
80567;SDS011;69922;45.656;25.586;2023-06-22T06:07:55;10.60;;;9.50;;
80567;SDS011;69922;45.656;25.586;2023-06-22T06:09:02;11.20;;;9.80;;
80567;SDS011;69922;45.656;25.586;2023-06-22T06:10:09;12.10;;;9.70;;
80567;SDS011;69922;45.656;25.586;2023-06-22T06:11:16;16.00;;;10.10;;
80567;SDS011;69922;45.656;25.586;2023-06-22T06:12:23;12.70;;;10.20;;
80567;SDS011;69922;45.656;25.586;2023-06-22T06:13:29;11.30;;;9.60;;
80567;SDS011;69922;45.656;25.586;2023-06-22T06:14:36;12.30;;;9.60;;
80567;SDS011;69922;45.656;25.586;2023-06-22T06:15:42;14.40;;;10.20;;
80567;SDS011;69922;45.656;25.586;2023-06-22T06:16:49;12.90;;;9.90;;
80567;SDS011;69922;45.656;25.586;2023-06-22T06:17:56;11.60;;;10.20;;
80567;SDS011;69922;45.656;25.586;2023-06-22T06:19:02;12.70;;;9.80;;
80567;SDS011;69922;45.656;25.586;2023-06-22T06:20:09;12.60;;;10.80;;
80567;SDS011;69922;45.656;25.586;2023-06-22T06:21:16;11.20;;;9.70;;
80567;SDS011;69922;45.656;25.586;2023-06-22T06:22:22;13.70;;;9.80;;
80567;SDS011;69922;45.656;25.586;2023-06-22T06:23:29;11.20;;;9.60;;
80567;SDS011;69922;45.656;25.586;2023-06-22T06:24:35;12.10;;;9.80;;
80567;SDS011;69922;45.656;25.586;2023-06-22T06:25:42;14.30;;;9.90;;
80567;SDS011;69922;45.656;25.586;2023-06-22T06:26:49;13.90;;;9.60;;
80567;SDS011;69922;45.656;25.586;2023-06-22T06:27:55;13.40;;;9.50;;
80567;SDS011;69922;45.656;25.586;2023-06-22T06:29:01;11.00;;;9.70;;
80567;SDS011;69922;45.656;25.586;2023-06-22T06:30:09;13.50;;;10.00;;
80567;SDS011;69922;45.656;25.586;2023-06-22T06:31:16;14.20;;;9.70;;
80567;SDS011;69922;45.656;25.586;2023-06-22T06:32:23;12.50;;;9.70;;
80567;SDS011;69922;45.656;25.586;2023-06-22T06:33:29;14.10;;;10.50;;
80567;SDS011;69922;45.656;25.586;2023-06-22T06:34:36;13.40;;;10.90;;
80567;SDS011;69922;45.656;25.586;2023-06-22T06:35:42;14.00;;;9.90;;
80567;SDS011;69922;45.656;25.586;2023-06-22T06:36:49;12.90;;;10.60;;
80567;SDS011;69922;45.656;25.586;2023-06-22T06:37:55;14.30;;;9.90;;
80567;SDS011;69922;45.656;25.586;2023-06-22T06:39:01;12.60;;;10.10;;
80567;SDS011;69922;45.656;25.586;2023-06-22T06:40:09;13.00;;;10.30;;
80567;SDS011;69922;45.656;25.586;2023-06-22T06:41:16;11.30;;;10.00;;
80567;SDS011;69922;45.656;25.586;2023-06-22T06:42:23;13.80;;;9.80;;